createdAt,value
2023-12-08T00:00:08.877Z,7.20
2023-12-08T00:02:36.857Z,7.50
2023-12-08T00:05:04.837Z,7.35
2023-12-08T00:07:32.655Z,6.90
2023-12-08T00:10:00.532Z,7.15
2023-12-08T00:12:28.263Z,7.72
2023-12-08T00:14:55.884Z,7.35
2023-12-08T00:17:24.021Z,7.70
2023-12-08T00:19:54.218Z,6.97
2023-12-08T00:22:22.145Z,7.00
2023-12-08T00:24:50.035Z,7.78
2023-12-08T00:27:17.778Z,7.65
2023-12-08T00:29:45.629Z,7.70
2023-12-08T00:32:14.310Z,8.20
2023-12-08T00:34:42.243Z,7.15
2023-12-08T00:37:10.548Z,7.00
2023-12-08T00:39:38.232Z,7.88
2023-12-08T00:42:06.119Z,8.13
2023-12-08T00:44:33.851Z,7.18
2023-12-08T00:47:01.541Z,7.75
2023-12-08T00:49:29.658Z,8.15
2023-12-08T00:51:57.925Z,8.00
2023-12-08T00:54:25.780Z,8.13
2023-12-08T00:56:53.498Z,7.93
2023-12-08T00:59:21.266Z,8.18
2023-12-08T01:01:49.491Z,8.48
2023-12-08T01:04:18.238Z,7.53
2023-12-08T01:06:45.894Z,8.25
2023-12-08T01:09:14.192Z,8.55
2023-12-08T01:11:42.519Z,8.10
2023-12-08T01:14:11.040Z,8.25
2023-12-08T01:16:45.633Z,8.43
2023-12-08T01:19:13.870Z,8.73
2023-12-08T01:21:41.821Z,8.88
2023-12-08T01:24:09.794Z,9.57
2023-12-08T01:26:37.632Z,7.53
2023-12-08T01:29:05.356Z,8.80
2023-12-08T01:31:33.153Z,7.45
2023-12-08T01:34:00.952Z,8.85
2023-12-08T01:36:41.817Z,6.85
2023-12-08T01:39:12.847Z,8.82
2023-12-08T01:41:41.098Z,7.63
2023-12-08T01:44:09.209Z,7.60
2023-12-08T01:46:38.681Z,6.60
2023-12-08T01:49:07.520Z,8.05
2023-12-08T01:51:35.774Z,8.05
2023-12-08T01:54:03.717Z,9.40
2023-12-08T01:56:31.801Z,7.97
2023-12-08T01:58:59.696Z,9.55
2023-12-08T02:01:27.936Z,8.05
2023-12-08T02:03:56.475Z,8.32
2023-12-08T02:06:24.381Z,6.78
2023-12-08T02:08:52.264Z,7.55
2023-12-08T02:11:20.528Z,7.93
2023-12-08T02:13:48.439Z,7.90
2023-12-08T02:16:20.222Z,7.40
2023-12-08T02:18:48.151Z,7.65
2023-12-08T02:21:16.091Z,8.20
2023-12-08T02:23:48.631Z,7.45
2023-12-08T02:26:17.851Z,8.52
2023-12-08T02:28:46.299Z,7.72
2023-12-08T02:31:18.024Z,7.57
2023-12-08T02:33:48.091Z,7.63
2023-12-08T02:36:17.765Z,7.93
2023-12-08T02:38:48.372Z,7.38
2023-12-08T02:41:16.161Z,7.25
2023-12-08T02:43:43.994Z,7.70
2023-12-08T02:46:12.277Z,7.95
2023-12-08T02:48:40.009Z,7.10
2023-12-08T02:51:07.982Z,7.57
2023-12-08T02:53:36.038Z,6.55
2023-12-08T02:56:03.739Z,6.80
2023-12-08T02:58:31.375Z,6.57
2023-12-08T03:00:59.523Z,7.03
2023-12-08T03:03:27.557Z,8.10
2023-12-08T03:05:55.345Z,7.05
2023-12-08T03:08:23.297Z,7.25
2023-12-08T03:10:51.122Z,7.85
2023-12-08T03:13:19.040Z,6.80
2023-12-08T03:15:46.799Z,5.88
2023-12-08T03:18:16.079Z,6.07
2023-12-08T03:20:44.001Z,7.20
2023-12-08T03:23:11.781Z,6.70
2023-12-08T03:25:39.627Z,6.78
2023-12-08T03:28:07.336Z,6.63
2023-12-08T03:30:35.043Z,6.60
2023-12-08T03:33:02.917Z,6.35
2023-12-08T03:35:31.107Z,6.32
2023-12-08T03:37:58.819Z,6.75
2023-12-08T03:40:26.833Z,6.15
2023-12-08T03:42:54.630Z,5.90
2023-12-08T03:45:22.451Z,5.57
2023-12-08T03:47:50.495Z,5.30
2023-12-08T03:50:18.412Z,6.47
2023-12-08T03:52:46.464Z,6.15
2023-12-08T03:55:16.125Z,5.53
2023-12-08T03:57:43.920Z,4.97
2023-12-08T04:00:12.528Z,5.03
2023-12-08T04:02:40.595Z,4.80
2023-12-08T04:05:08.901Z,5.03
2023-12-08T04:07:36.766Z,5.55
2023-12-08T04:10:04.625Z,5.05
2023-12-08T04:12:32.332Z,5.57
2023-12-08T04:15:00.049Z,5.25
2023-12-08T04:17:27.897Z,4.65
2023-12-08T04:19:56.470Z,5.00
2023-12-08T04:22:24.223Z,4.72
2023-12-08T04:24:52.630Z,5.22
2023-12-08T04:27:20.678Z,5.93
2023-12-08T04:29:48.654Z,4.30
2023-12-08T04:32:16.432Z,5.40
2023-12-08T04:34:44.386Z,4.82
2023-12-08T04:37:12.118Z,4.63
2023-12-08T04:39:40.111Z,5.40
2023-12-08T04:42:08.953Z,5.00
2023-12-08T04:44:36.694Z,4.90
2023-12-08T04:47:04.464Z,5.97
2023-12-08T04:49:32.216Z,4.88
2023-12-08T04:52:00.067Z,4.95
2023-12-08T04:54:28.274Z,5.13
2023-12-08T04:56:55.988Z,5.40
2023-12-08T04:59:24.386Z,5.15
2023-12-08T05:04:44.245Z,5.68
2023-12-08T05:07:12.094Z,6.47
2023-12-08T05:09:39.676Z,5.95
2023-12-08T05:12:08.058Z,6.13
2023-12-08T05:14:35.747Z,5.85
2023-12-08T05:17:03.875Z,5.57
2023-12-08T05:19:31.850Z,5.95
2023-12-08T05:21:59.600Z,5.70
2023-12-08T05:24:27.283Z,5.95
2023-12-08T05:26:56.255Z,6.53
2023-12-08T05:29:23.804Z,5.78
2023-12-08T05:31:51.425Z,7.13
2023-12-08T05:34:19.062Z,7.18
2023-12-08T05:36:46.901Z,6.95
2023-12-08T05:39:16.157Z,7.28
2023-12-08T05:41:44.130Z,6.80
2023-12-08T05:44:13.208Z,7.07
2023-12-08T05:46:40.832Z,7.32
2023-12-08T05:49:08.571Z,8.43
2023-12-08T05:51:36.482Z,7.60
2023-12-08T05:54:04.818Z,7.63
2023-12-08T05:56:33.047Z,8.07
2023-12-08T05:59:00.640Z,8.98
2023-12-08T06:01:28.783Z,7.60
2023-12-08T06:03:56.612Z,8.30
2023-12-08T06:06:24.958Z,8.68
2023-12-08T06:08:55.023Z,8.80
2023-12-08T06:11:23.692Z,8.90
2023-12-08T06:13:51.389Z,8.23
2023-12-08T06:16:19.341Z,8.98
2023-12-08T06:18:47.431Z,8.85
2023-12-08T06:21:16.266Z,8.55
2023-12-08T06:23:44.045Z,8.85
2023-12-08T06:26:12.099Z,9.32
2023-12-08T06:28:39.647Z,8.05
2023-12-08T06:31:11.153Z,10.10
2023-12-08T06:33:38.952Z,8.63
2023-12-08T06:36:07.125Z,8.05
2023-12-08T06:38:35.124Z,9.70
2023-12-08T06:41:02.864Z,8.43
2023-12-08T06:43:30.778Z,9.18
2023-12-08T06:45:58.491Z,8.10
2023-12-08T06:48:26.273Z,9.25
2023-12-08T06:50:54.062Z,9.00
2023-12-08T06:53:21.727Z,8.65
2023-12-08T06:55:49.581Z,8.88
2023-12-08T06:58:17.314Z,8.88
2023-12-08T07:00:45.026Z,8.85
2023-12-08T07:03:12.878Z,8.38
2023-12-08T07:05:41.497Z,9.70
2023-12-08T07:08:09.665Z,9.02
2023-12-08T07:10:37.582Z,9.48
2023-12-08T07:13:05.572Z,9.95
2023-12-08T07:15:33.377Z,8.27
2023-12-08T07:18:01.768Z,9.10
2023-12-08T07:20:29.650Z,8.18
2023-12-08T07:22:57.432Z,8.93
2023-12-08T07:25:25.762Z,7.88
2023-12-08T07:27:53.577Z,9.10
2023-12-08T07:30:21.366Z,9.18
2023-12-08T07:32:49.807Z,8.65
2023-12-08T07:35:19.500Z,8.85
2023-12-08T07:37:47.382Z,9.07
2023-12-08T07:40:16.738Z,8.68
2023-12-08T07:42:46.377Z,9.13
2023-12-08T07:45:14.359Z,8.65
2023-12-08T07:47:43.743Z,10.40
2023-12-08T07:50:12.546Z,9.00
2023-12-08T07:52:43.421Z,9.68
2023-12-08T07:55:11.896Z,9.73
2023-12-08T07:57:40.312Z,9.93
2023-12-08T08:00:09.686Z,9.43
2023-12-08T08:02:37.879Z,10.23
2023-12-08T08:05:09.025Z,9.48
2023-12-08T08:07:37.634Z,10.38
2023-12-08T08:10:05.823Z,9.75
2023-12-08T08:12:35.002Z,9.55
2023-12-08T08:15:02.760Z,9.27
2023-12-08T08:17:30.992Z,10.85
2023-12-08T08:19:59.220Z,10.23
2023-12-08T08:22:31.748Z,9.68
2023-12-08T08:25:01.418Z,10.57
2023-12-08T08:27:30.343Z,10.30
2023-12-08T08:29:58.505Z,10.45
2023-12-08T08:32:26.133Z,9.85
2023-12-08T08:34:56.919Z,8.55
2023-12-08T08:37:26.393Z,10.30
2023-12-08T08:39:55.267Z,9.68
2023-12-08T08:42:23.870Z,8.95
2023-12-08T08:44:52.462Z,9.35
2023-12-08T08:47:21.275Z,9.10
2023-12-08T08:49:49.417Z,10.15
2023-12-08T08:52:17.605Z,9.38
2023-12-08T08:54:48.179Z,8.85
2023-12-08T08:57:19.302Z,9.27
2023-12-08T08:59:46.971Z,8.82
2023-12-08T09:02:14.745Z,9.05
2023-12-08T09:04:42.536Z,8.98
2023-12-08T09:07:10.590Z,8.32
2023-12-08T09:09:41.247Z,9.15
2023-12-08T09:12:10.692Z,8.18
2023-12-08T09:14:39.755Z,8.60
2023-12-08T09:17:07.940Z,8.85
2023-12-08T09:19:36.603Z,8.35
2023-12-08T09:22:04.920Z,8.30
2023-12-08T09:24:32.726Z,9.13
2023-12-08T09:27:02.579Z,8.85
2023-12-08T09:29:30.328Z,8.70
2023-12-08T09:31:58.503Z,9.80
2023-12-08T09:34:26.510Z,8.98
2023-12-08T09:37:25.365Z,8.60
2023-12-08T09:39:42.597Z,8.27
2023-12-08T09:42:33.405Z,9.35
2023-12-08T09:45:02.470Z,8.00
2023-12-08T09:47:31.989Z,8.75
2023-12-08T09:50:03.633Z,7.97
2023-12-08T09:52:31.458Z,8.82
2023-12-08T09:55:00.187Z,8.60
2023-12-08T09:57:30.989Z,7.43
2023-12-08T10:00:11.942Z,7.22
2023-12-08T10:02:46.075Z,7.68
2023-12-08T10:05:14.331Z,7.78
2023-12-08T10:07:47.663Z,7.47
2023-12-08T10:10:15.507Z,8.23
2023-12-08T10:12:43.595Z,7.72
2023-12-08T10:15:12.911Z,8.10
2023-12-08T10:18:00.042Z,8.10
2023-12-08T10:20:28.318Z,9.15
2023-12-08T10:23:01.441Z,8.10
2023-12-08T10:25:31.260Z,8.65
2023-12-08T10:27:58.904Z,7.85
2023-12-08T10:30:29.779Z,9.20
2023-12-08T10:32:59.952Z,9.13
2023-12-08T10:35:28.157Z,7.15
2023-12-08T10:37:56.033Z,7.50
2023-12-08T10:40:53.873Z,6.97
2023-12-08T10:43:27.122Z,7.22
2023-12-08T10:45:55.318Z,7.18
2023-12-08T10:48:24.226Z,8.13
2023-12-08T10:50:54.003Z,8.60
2023-12-08T10:53:22.494Z,6.68
2023-12-08T10:56:07.732Z,8.57
2023-12-08T10:58:36.995Z,7.65
2023-12-08T11:01:13.961Z,8.05
2023-12-08T11:03:54.279Z,9.25
2023-12-08T11:06:31.550Z,7.82
2023-12-08T11:09:01.744Z,7.40
2023-12-08T11:11:32.574Z,8.75
2023-12-08T11:15:46.930Z,8.85
2023-12-08T11:18:43.151Z,7.70
2023-12-08T11:21:12.478Z,7.43
2023-12-08T11:24:33.128Z,9.57
2023-12-08T11:27:45.131Z,7.82
2023-12-08T11:31:16.656Z,8.60
2023-12-08T11:34:29.103Z,8.68
2023-12-08T11:36:59.211Z,6.80
2023-12-08T11:39:35.825Z,7.47
2023-12-08T11:42:15.075Z,7.43
2023-12-08T11:44:48.181Z,7.82
2023-12-08T11:47:22.880Z,6.50
2023-12-08T11:49:51.024Z,6.60
2023-12-08T11:52:33.130Z,6.55
2023-12-08T11:55:33.751Z,7.45
2023-12-08T11:58:18.919Z,6.35
2023-12-08T12:00:49.757Z,6.47
2023-12-08T12:03:18.051Z,6.13
2023-12-08T12:05:45.982Z,7.07
2023-12-08T12:08:33.145Z,6.05
2023-12-08T12:11:02.052Z,6.20
2023-12-08T12:13:34.274Z,6.75
2023-12-08T12:16:02.026Z,6.53
2023-12-08T12:18:31.754Z,6.70
2023-12-08T12:21:28.377Z,7.05
2023-12-08T12:23:56.275Z,7.07
2023-12-08T12:26:23.918Z,6.47
2023-12-08T12:28:52.287Z,6.55
2023-12-08T12:31:31.332Z,7.35
2023-12-08T12:33:59.562Z,6.88
2023-12-08T12:36:27.651Z,6.32
2023-12-08T12:38:55.392Z,6.13
2023-12-08T12:41:24.713Z,5.57
2023-12-08T12:43:59.080Z,5.97
2023-12-08T12:46:29.593Z,6.18
2023-12-08T12:49:00.412Z,6.65
2023-12-08T12:51:35.312Z,6.85
2023-12-08T12:54:10.877Z,5.93
2023-12-08T12:56:51.767Z,5.18
2023-12-08T12:59:19.520Z,4.85
2023-12-08T13:01:48.956Z,6.15
2023-12-08T13:04:19.160Z,5.00
2023-12-08T13:07:41.708Z,4.88
2023-12-08T13:10:10.037Z,6.25
2023-12-08T13:12:40.526Z,5.15
2023-12-08T13:15:09.569Z,4.85
2023-12-08T13:17:39.097Z,5.53
2023-12-08T13:20:18.367Z,6.80
2023-12-08T13:22:46.057Z,5.25
2023-12-08T13:25:18.345Z,5.03
2023-12-08T13:27:46.601Z,5.60
2023-12-08T13:30:34.906Z,4.88
2023-12-08T13:33:11.066Z,5.25
2023-12-08T14:21:27.696Z,6.90
2023-12-08T14:24:03.587Z,5.20
2023-12-08T14:26:33.663Z,5.85
2023-12-08T14:29:01.414Z,5.85
2023-12-08T14:31:29.651Z,5.18
2023-12-08T14:33:57.495Z,5.78
2023-12-08T14:36:26.495Z,6.28
2023-12-08T14:38:54.212Z,6.25
2023-12-08T14:41:21.989Z,5.70
2023-12-08T14:43:49.888Z,6.40
2023-12-08T14:46:20.972Z,4.80
2023-12-08T14:48:50.487Z,5.70
2023-12-08T14:51:22.737Z,5.93
2023-12-08T14:53:51.136Z,6.22
2023-12-08T14:56:20.322Z,5.82
2023-12-08T14:58:48.178Z,6.28
2023-12-08T15:01:19.991Z,6.70
2023-12-08T15:06:15.841Z,7.15
2023-12-08T15:08:43.731Z,6.55
2023-12-08T15:11:11.722Z,5.95
2023-12-08T15:13:39.387Z,6.18
2023-12-08T15:16:08.060Z,5.72
2023-12-08T15:18:36.083Z,6.28
2023-12-08T15:21:04.188Z,6.40
2023-12-08T15:23:35.077Z,5.75
2023-12-08T15:26:02.816Z,5.82
2023-12-08T15:28:30.573Z,6.07
2023-12-08T15:30:58.351Z,6.10
2023-12-08T15:33:26.277Z,5.95
2023-12-08T15:35:54.542Z,6.22
2023-12-08T15:38:22.365Z,5.63
2023-12-08T15:40:49.991Z,5.65
2023-12-08T15:43:17.722Z,6.05
2023-12-08T15:45:45.765Z,5.45
2023-12-08T15:48:13.689Z,5.80
2023-12-08T15:50:41.868Z,5.85
2023-12-08T15:53:09.745Z,6.30
2023-12-08T15:55:37.568Z,6.13
2023-12-08T15:58:05.252Z,5.00
2023-12-08T16:00:33.084Z,6.18
2023-12-08T16:03:02.021Z,5.97
2023-12-08T16:05:29.900Z,6.47
2023-12-08T16:07:57.603Z,6.30
2023-12-08T16:10:25.398Z,6.78
2023-12-08T16:12:53.351Z,6.43
2023-12-08T16:15:21.118Z,6.00
2023-12-08T16:17:49.239Z,6.40
2023-12-08T16:20:17.073Z,6.13
2023-12-08T16:22:44.699Z,6.45
2023-12-08T16:25:12.404Z,6.05
2023-12-08T16:27:40.173Z,7.47
2023-12-08T16:30:09.817Z,6.10
2023-12-08T16:32:42.316Z,6.30
2023-12-08T16:35:12.615Z,7.25
2023-12-08T16:37:40.351Z,6.28
2023-12-08T16:40:08.885Z,6.50
2023-12-08T16:42:36.884Z,6.07
2023-12-08T16:45:05.032Z,6.32
2023-12-08T16:47:32.834Z,7.75
2023-12-08T16:50:01.261Z,6.47
2023-12-08T16:52:29.372Z,7.78
2023-12-08T16:54:57.800Z,7.18
2023-12-08T16:57:26.239Z,7.22
2023-12-08T16:59:54.083Z,5.75
2023-12-08T17:02:21.852Z,7.57
2023-12-08T17:04:49.617Z,7.05
2023-12-08T17:07:17.358Z,6.63
2023-12-08T17:09:45.107Z,5.95
2023-12-08T17:12:12.944Z,7.97
2023-12-08T17:14:40.948Z,6.03
2023-12-08T17:17:08.517Z,7.28
2023-12-08T17:19:36.399Z,6.13
2023-12-08T17:22:04.373Z,6.25
2023-12-08T17:24:32.043Z,6.68
2023-12-08T17:26:59.832Z,7.63
2023-12-08T17:29:27.832Z,6.88
2023-12-08T17:31:55.705Z,7.05
2023-12-08T17:34:23.659Z,6.85
2023-12-08T17:36:52.211Z,6.57
2023-12-08T17:39:20.399Z,6.95
2023-12-08T17:41:48.486Z,6.88
2023-12-08T17:44:16.246Z,6.82
2023-12-08T17:46:44.340Z,7.95
2023-12-08T17:49:12.461Z,5.72
2023-12-08T17:51:40.484Z,6.82
2023-12-08T17:54:08.332Z,6.38
2023-12-08T17:56:36.195Z,7.70
2023-12-08T17:59:03.835Z,5.90
2023-12-08T18:01:31.842Z,6.75
2023-12-08T18:03:59.673Z,6.25
2023-12-08T18:06:27.362Z,6.32
2023-12-08T18:08:55.459Z,6.40
2023-12-08T18:11:27.261Z,6.22
2023-12-08T18:13:55.571Z,6.32
2023-12-08T18:16:27.909Z,6.43
2023-12-08T18:18:56.563Z,6.13
2023-12-08T18:21:27.325Z,5.53
2023-12-08T18:23:55.688Z,6.40
2023-12-08T18:26:24.131Z,6.15
2023-12-08T18:31:23.481Z,5.82
2023-12-08T18:33:55.756Z,6.90
2023-12-08T18:36:26.983Z,5.93
2023-12-08T18:39:00.256Z,5.90
2023-12-08T18:41:30.222Z,6.35
2023-12-08T18:43:58.649Z,6.78
2023-12-08T18:46:26.687Z,5.45
2023-12-08T18:48:59.231Z,7.10
2023-12-08T18:51:29.562Z,7.38
2023-12-08T18:53:58.749Z,6.30
2023-12-08T18:56:26.728Z,5.57
2023-12-08T18:58:58.610Z,6.75
2023-12-08T19:03:54.208Z,5.82
2023-12-08T19:06:22.461Z,5.65
2023-12-08T19:08:50.535Z,6.57
2023-12-08T19:11:18.578Z,7.15
2023-12-08T19:13:47.093Z,6.35
2023-12-08T19:16:14.735Z,7.55
2023-12-08T19:18:42.806Z,7.80
2023-12-08T19:21:12.761Z,7.28
2023-12-08T19:23:40.999Z,6.93
2023-12-08T19:26:08.728Z,5.57
2023-12-08T19:28:39.284Z,7.55
2023-12-08T19:31:07.975Z,6.38
2023-12-08T19:33:36.674Z,6.63
2023-12-08T19:36:05.625Z,6.20
2023-12-08T19:38:34.158Z,7.43
2023-12-08T19:41:02.512Z,6.40
2023-12-08T19:43:30.647Z,6.68
2023-12-08T19:45:58.843Z,7.32
2023-12-08T19:48:28.116Z,6.40
2023-12-08T19:50:55.914Z,6.32
2023-12-08T19:53:23.992Z,5.63
2023-12-08T19:55:51.734Z,6.55
2023-12-08T19:58:19.629Z,5.88
2023-12-08T20:00:47.437Z,8.00
2023-12-08T20:03:15.438Z,5.80
2023-12-08T20:05:43.313Z,6.55
2023-12-08T20:08:11.021Z,5.88
2023-12-08T20:10:39.810Z,6.50
2023-12-08T20:13:07.488Z,6.07
2023-12-08T20:15:35.370Z,6.38
2023-12-08T20:18:04.229Z,5.88
2023-12-08T20:20:32.013Z,6.38
2023-12-08T20:22:59.741Z,6.07
2023-12-08T20:25:27.476Z,6.75
2023-12-08T20:27:55.450Z,6.40
2023-12-08T20:30:23.164Z,7.00
2023-12-08T20:32:51.524Z,7.28
2023-12-08T20:35:19.113Z,6.97
2023-12-08T20:37:46.743Z,6.65
2023-12-08T20:40:14.729Z,7.57
2023-12-08T20:42:42.457Z,6.43
2023-12-08T20:45:10.965Z,8.23
2023-12-08T20:47:38.965Z,7.53
2023-12-08T20:50:07.327Z,6.68
2023-12-08T20:52:35.078Z,6.78
2023-12-08T20:55:03.235Z,7.22
2023-12-08T20:57:31.248Z,7.10
2023-12-08T20:59:59.076Z,6.70
2023-12-08T21:02:26.959Z,7.45
2023-12-08T21:04:54.598Z,6.70
2023-12-08T21:07:22.388Z,7.60
2023-12-08T21:09:50.206Z,7.80
2023-12-08T21:12:18.905Z,6.95
2023-12-08T21:14:46.752Z,11.88
2023-12-08T21:17:14.844Z,10.77
2023-12-08T21:19:45.059Z,10.57
2023-12-08T21:22:12.979Z,7.80
2023-12-08T21:24:41.233Z,7.25
2023-12-08T21:27:09.833Z,7.00
2023-12-08T21:29:38.252Z,7.60
2023-12-08T21:32:06.415Z,7.32
2023-12-08T21:34:34.136Z,7.20
2023-12-08T21:37:02.308Z,7.15
2023-12-08T21:39:30.148Z,7.60
2023-12-08T21:41:58.064Z,7.57
2023-12-08T21:44:26.238Z,8.32
2023-12-08T21:46:53.953Z,8.73
2023-12-08T21:49:22.849Z,7.07
2023-12-08T21:51:50.643Z,7.43
2023-12-08T21:54:18.554Z,8.75
2023-12-08T21:56:46.445Z,8.10
2023-12-08T21:59:14.191Z,7.80
2023-12-08T22:01:46.213Z,8.27
2023-12-08T22:04:14.618Z,7.40
2023-12-08T22:06:42.730Z,7.75
2023-12-08T22:09:14.669Z,8.60
2023-12-08T22:11:42.741Z,7.20
2023-12-08T22:14:10.639Z,8.25
2023-12-08T22:16:38.565Z,7.05
2023-12-08T22:19:06.301Z,7.88
2023-12-08T22:21:36.910Z,7.03
2023-12-08T22:24:04.920Z,7.13
2023-12-08T22:26:32.762Z,6.95
2023-12-08T22:29:00.828Z,6.32
2023-12-08T22:31:28.486Z,6.40
2023-12-08T22:34:01.630Z,6.93
2023-12-08T22:36:32.159Z,8.07
2023-12-08T22:39:00.053Z,8.27
2023-12-08T22:41:30.184Z,8.02
2023-12-08T22:43:57.819Z,6.53
2023-12-08T22:46:25.611Z,6.72
2023-12-08T22:48:53.587Z,7.35
2023-12-08T22:51:29.594Z,8.07
2023-12-08T22:54:06.308Z,8.50
2023-12-08T22:56:34.607Z,8.20
2023-12-08T22:59:02.375Z,8.27
2023-12-08T23:01:30.107Z,10.23
2023-12-08T23:03:58.020Z,9.07
2023-12-08T23:06:26.182Z,8.45
2023-12-08T23:08:54.005Z,7.97
2023-12-08T23:11:23.100Z,10.80
2023-12-08T23:13:50.976Z,9.02
2023-12-08T23:16:19.546Z,7.53
2023-12-08T23:18:47.398Z,7.63
2023-12-08T23:21:15.480Z,6.72
2023-12-08T23:23:43.294Z,7.88
2023-12-08T23:26:11.361Z,7.15
2023-12-08T23:28:39.152Z,7.70
2023-12-08T23:31:07.173Z,7.50
2023-12-08T23:33:35.189Z,5.95
2023-12-08T23:36:03.148Z,8.15
2023-12-08T23:38:30.771Z,7.30
2023-12-08T23:40:58.542Z,8.50
2023-12-08T23:43:26.333Z,8.18
2023-12-08T23:45:54.089Z,9.15
2023-12-08T23:48:22.381Z,7.72
2023-12-08T23:50:50.323Z,8.07
2023-12-08T23:53:20.685Z,8.13
2023-12-08T23:55:48.493Z,8.75
2023-12-08T23:58:16.049Z,7.25
